createdAt,value
2022-10-18T00:00:46.196Z,93.73
2022-10-18T00:03:12.508Z,93.77
2022-10-18T00:05:38.916Z,93.73
2022-10-18T00:08:05.381Z,93.81
2022-10-18T00:10:31.759Z,93.91
2022-10-18T00:12:58.095Z,93.86
2022-10-18T00:15:24.581Z,93.88
2022-10-18T00:17:50.893Z,93.82
2022-10-18T00:20:17.204Z,93.86
2022-10-18T00:22:43.536Z,93.91
2022-10-18T00:25:10.450Z,94.05
2022-10-18T00:27:37.267Z,94.16
2022-10-18T00:30:05.005Z,94.29
2022-10-18T00:32:31.583Z,94.44
2022-10-18T00:34:58.207Z,94.46
2022-10-18T00:37:24.583Z,94.52
2022-10-18T00:42:25.104Z,94.29
2022-10-18T00:44:51.391Z,94.30
2022-10-18T00:47:18.756Z,94.17
2022-10-18T00:49:53.091Z,94.26
2022-10-18T00:52:24.136Z,94.33
2022-10-18T00:54:52.071Z,94.55
2022-10-18T00:57:18.712Z,94.57
2022-10-18T00:59:46.510Z,94.65
2022-10-18T01:02:14.956Z,94.62
2022-10-18T01:04:41.488Z,94.63
2022-10-18T01:07:18.744Z,94.70
2022-10-18T01:10:08.259Z,94.44
2022-10-18T01:13:02.555Z,94.34
2022-10-18T01:15:33.899Z,94.40
2022-10-18T01:18:20.869Z,94.20
2022-10-18T01:21:11.267Z,94.29
2022-10-18T01:23:59.509Z,94.35
2022-10-18T01:26:41.036Z,94.56
2022-10-18T01:29:26.652Z,94.77
2022-10-18T01:32:10.571Z,94.54
2022-10-18T01:34:40.429Z,94.57
2022-10-18T01:37:09.274Z,94.61
2022-10-18T01:39:39.251Z,94.50
2022-10-18T01:42:09.750Z,94.44
2022-10-18T01:44:38.832Z,94.57
2022-10-18T01:47:07.530Z,94.64
2022-10-18T01:49:34.496Z,94.59
2022-10-18T01:52:00.960Z,94.72
2022-10-18T01:54:35.047Z,94.61
2022-10-18T01:57:19.464Z,94.61
2022-10-18T01:59:54.798Z,94.54
2022-10-18T02:02:30.611Z,94.38
2022-10-18T02:05:18.604Z,94.39
2022-10-18T02:08:24.346Z,94.28
2022-10-18T02:11:12.363Z,94.47
2022-10-18T02:13:43.236Z,94.34
2022-10-18T02:16:15.687Z,94.40
2022-10-18T02:18:48.667Z,94.44
2022-10-18T02:21:19.192Z,94.46
2022-10-18T02:23:46.949Z,93.94
2022-10-18T02:26:16.888Z,94.33
2022-10-18T02:28:44.056Z,94.33
2022-10-18T02:31:18.781Z,94.42
2022-10-18T02:33:56.843Z,94.23
2022-10-18T02:36:36.259Z,94.21
2022-10-18T02:39:11.940Z,94.13
2022-10-18T02:41:38.496Z,94.23
2022-10-18T02:44:04.902Z,94.08
2022-10-18T02:46:31.422Z,93.93
2022-10-18T02:48:57.754Z,93.47
2022-10-18T02:51:25.113Z,93.70
2022-10-18T02:53:51.680Z,93.67
2022-10-18T02:56:18.058Z,93.55
2022-10-18T02:58:44.429Z,93.69
2022-10-18T03:01:10.804Z,93.49
2022-10-18T03:03:37.181Z,93.53
2022-10-18T03:06:03.665Z,93.58
2022-10-18T03:08:30.043Z,93.51
2022-10-18T03:10:56.386Z,93.48
2022-10-18T03:13:22.791Z,93.46
2022-10-18T03:15:49.209Z,93.45
2022-10-18T03:18:15.780Z,93.40
2022-10-18T03:20:42.229Z,93.24
2022-10-18T03:23:09.137Z,93.23
2022-10-18T03:25:35.491Z,93.35
2022-10-18T03:28:01.838Z,93.36
2022-10-18T03:30:28.235Z,93.48
2022-10-18T03:32:54.635Z,93.44
2022-10-18T03:35:21.209Z,93.36
2022-10-18T03:37:47.604Z,93.32
2022-10-18T03:40:13.971Z,93.50
2022-10-18T03:42:40.441Z,93.19
2022-10-18T03:45:07.452Z,93.08
2022-10-18T03:47:33.989Z,93.27
2022-10-18T03:50:00.549Z,93.21
2022-10-18T03:52:26.881Z,93.32
2022-10-18T03:54:53.269Z,93.25
2022-10-18T03:57:19.635Z,93.18
2022-10-18T03:59:45.963Z,93.14
2022-10-18T04:02:12.340Z,93.25
2022-10-18T04:04:38.694Z,92.94
2022-10-18T04:07:05.044Z,93.26
2022-10-18T04:09:31.414Z,93.06
2022-10-18T04:11:57.741Z,92.88
2022-10-18T04:14:24.068Z,93.00
2022-10-18T04:16:50.445Z,92.93
2022-10-18T04:19:17.016Z,93.09
2022-10-18T04:21:43.343Z,92.91
2022-10-18T04:24:09.651Z,92.82
2022-10-18T04:26:35.980Z,93.09
2022-10-18T04:29:02.491Z,92.87
2022-10-18T04:31:28.923Z,93.14
2022-10-18T04:33:55.347Z,92.86
2022-10-18T04:36:21.741Z,92.84
2022-10-18T04:38:48.083Z,93.24
2022-10-18T04:41:14.402Z,92.93
2022-10-18T04:43:40.761Z,93.14
2022-10-18T04:46:07.141Z,92.77
2022-10-18T04:48:33.493Z,93.16
2022-10-18T04:50:59.893Z,93.23
2022-10-18T04:53:26.225Z,93.46
2022-10-18T04:55:52.632Z,92.99
2022-10-18T04:58:19.179Z,93.25
2022-10-18T05:00:47.554Z,93.34
2022-10-18T05:03:14.617Z,92.93
2022-10-18T05:06:00.332Z,93.17
2022-10-18T05:08:27.657Z,93.44
2022-10-18T05:10:54.090Z,93.23
2022-10-18T05:13:20.433Z,93.38
2022-10-18T05:15:47.468Z,93.19
2022-10-18T05:18:13.883Z,93.58
2022-10-18T05:20:40.206Z,93.28
2022-10-18T05:23:06.546Z,93.43
2022-10-18T05:25:32.892Z,92.97
2022-10-18T05:28:03.430Z,92.91
2022-10-18T05:30:39.052Z,92.86
2022-10-18T05:33:05.786Z,93.00
2022-10-18T05:35:32.140Z,93.13
2022-10-18T05:37:58.489Z,92.85
2022-10-18T05:40:24.862Z,93.23
2022-10-18T05:42:54.043Z,93.44
2022-10-18T05:45:20.402Z,93.32
2022-10-18T05:47:46.843Z,93.51
2022-10-18T05:50:14.860Z,93.73
2022-10-18T05:52:41.283Z,93.65
2022-10-18T05:55:07.949Z,93.67
2022-10-18T05:57:34.725Z,93.83
2022-10-18T06:00:01.284Z,93.97
2022-10-18T06:02:27.651Z,93.98
2022-10-18T06:04:53.998Z,93.84
2022-10-18T06:07:20.307Z,94.02
2022-10-18T06:09:46.607Z,94.25
2022-10-18T06:12:13.191Z,94.22
2022-10-18T06:14:39.624Z,94.05
2022-10-18T06:17:06.010Z,94.07
2022-10-18T06:19:32.330Z,94.12
2022-10-18T06:21:58.648Z,94.59
2022-10-18T06:24:25.164Z,94.55
2022-10-18T06:26:51.520Z,94.91
2022-10-18T06:29:17.909Z,94.68
2022-10-18T06:31:44.254Z,94.70
2022-10-18T06:34:10.566Z,94.81
2022-10-18T06:36:36.913Z,94.95
2022-10-18T06:39:03.341Z,95.00
2022-10-18T06:41:29.664Z,95.42
2022-10-18T06:43:57.680Z,95.22
2022-10-18T06:46:25.726Z,95.30
2022-10-18T06:48:52.124Z,95.42
2022-10-18T06:51:18.590Z,95.34
2022-10-18T06:54:05.819Z,95.19
2022-10-18T06:56:31.581Z,95.35
2022-10-18T07:01:25.267Z,95.62
2022-10-18T07:03:53.345Z,95.48
2022-10-18T07:06:20.450Z,95.61
2022-10-18T07:08:48.190Z,95.60
2022-10-18T07:11:20.295Z,95.36
2022-10-18T07:13:46.752Z,95.44
2022-10-18T07:16:18.244Z,95.52
2022-10-18T07:18:50.769Z,95.64
2022-10-18T07:21:19.963Z,95.53
2022-10-18T07:23:47.280Z,95.57
2022-10-18T07:26:15.198Z,95.35
2022-10-18T07:28:42.694Z,95.42
2022-10-18T07:31:10.487Z,95.39
2022-10-18T07:33:39.819Z,95.38
2022-10-18T07:36:08.336Z,95.30
2022-10-18T07:38:35.651Z,95.39
2022-10-18T07:41:04.203Z,95.27
2022-10-18T07:43:30.760Z,95.22
2022-10-18T07:46:00.201Z,95.32
2022-10-18T07:48:27.090Z,95.15
2022-10-18T07:50:53.876Z,95.31
2022-10-18T07:53:20.545Z,95.30
2022-10-18T07:55:46.861Z,95.28
2022-10-18T07:58:13.239Z,95.11
2022-10-18T08:00:40.037Z,94.99
2022-10-18T08:03:06.748Z,95.19
2022-10-18T08:08:07.889Z,95.11
2022-10-18T08:10:36.181Z,94.98
2022-10-18T08:13:02.499Z,94.63
2022-10-18T08:15:28.802Z,94.43
2022-10-18T08:17:55.118Z,94.34
2022-10-18T08:20:30.273Z,94.25
2022-10-18T08:23:00.158Z,94.06
2022-10-18T08:25:27.410Z,93.63
2022-10-18T08:27:53.780Z,93.44
2022-10-18T08:30:20.261Z,92.27
2022-10-18T08:32:46.573Z,90.84
2022-10-18T08:35:12.874Z,90.19
2022-10-18T08:37:40.213Z,89.62
2022-10-18T08:40:07.147Z,89.63
2022-10-18T08:43:00.346Z,89.41
2022-10-18T08:45:41.900Z,88.98
2022-10-18T08:48:21.631Z,88.56
2022-10-18T08:50:49.629Z,88.39
2022-10-18T08:53:49.152Z,88.03
2022-10-18T08:56:18.768Z,87.57
2022-10-18T08:58:45.200Z,87.20
2022-10-18T09:01:17.459Z,87.55
2022-10-18T09:04:08.454Z,82.81
2022-10-18T09:07:04.769Z,78.54
2022-10-18T09:09:56.036Z,77.01
2022-10-18T09:12:50.200Z,74.41
2022-10-18T09:15:44.499Z,73.17
2022-10-18T09:18:41.660Z,73.58
2022-10-18T09:21:26.965Z,68.44
2022-10-18T09:24:02.548Z,69.31
2022-10-18T09:26:39.198Z,66.12
2022-10-18T09:29:39.483Z,68.31
2022-10-18T09:32:21.114Z,70.42
2022-10-18T09:34:58.082Z,72.53
2022-10-18T09:37:28.297Z,72.45
2022-10-18T09:40:19.496Z,72.05
2022-10-18T09:43:08.029Z,73.51
2022-10-18T09:45:40.054Z,71.57
2022-10-18T09:48:23.946Z,70.00
2022-10-18T09:51:04.637Z,69.85
2022-10-18T09:53:58.554Z,71.01
2022-10-18T09:56:36.684Z,69.00
2022-10-18T09:59:19.383Z,70.73
2022-10-18T10:01:45.822Z,67.96
2022-10-18T10:04:12.192Z,66.96
2022-10-18T10:06:49.037Z,65.55
2022-10-18T10:09:17.921Z,64.80
2022-10-18T10:11:49.148Z,63.44
2022-10-18T10:14:19.322Z,64.25
2022-10-18T10:16:53.073Z,61.95
2022-10-18T10:19:24.183Z,63.54
2022-10-18T10:21:55.061Z,63.20
2022-10-18T10:24:28.927Z,61.21
2022-10-18T10:27:03.277Z,63.19
2022-10-18T10:29:48.068Z,63.28
2022-10-18T10:32:19.607Z,60.15
2022-10-18T10:34:46.731Z,60.33
2022-10-18T10:37:35.005Z,60.71
2022-10-18T10:40:18.347Z,60.80
2022-10-18T10:42:54.539Z,58.66
2022-10-18T10:45:29.525Z,58.47
2022-10-18T10:48:04.557Z,57.22
2022-10-18T10:50:31.468Z,56.77
2022-10-18T10:52:58.630Z,56.62
2022-10-18T10:55:35.785Z,55.35
2022-10-18T10:58:02.487Z,55.69
2022-10-18T11:00:47.043Z,56.62
2022-10-18T11:03:34.535Z,56.66
2022-10-18T11:06:01.756Z,55.73
2022-10-18T11:08:41.330Z,55.52
2022-10-18T11:11:27.739Z,54.50
2022-10-18T11:14:26.182Z,53.39
2022-10-18T11:17:06.977Z,50.59
2022-10-18T11:20:01.229Z,52.84
2022-10-18T11:22:35.038Z,49.81
2022-10-18T11:25:03.918Z,49.93
2022-10-18T11:27:48.900Z,50.49
2022-10-18T11:30:36.724Z,48.79
2022-10-18T11:33:11.902Z,48.56
2022-10-18T11:35:47.342Z,47.97
2022-10-18T11:38:33.596Z,47.93
2022-10-18T11:41:06.753Z,45.32
2022-10-18T11:44:03.135Z,46.10
2022-10-18T11:46:57.213Z,48.99
2022-10-18T11:49:26.176Z,48.84
2022-10-18T11:52:22.489Z,49.61
2022-10-18T11:55:00.258Z,47.96
2022-10-18T11:57:36.086Z,48.14
2022-10-18T12:03:19.530Z,47.78
2022-10-18T12:05:48.412Z,48.21
2022-10-18T12:08:38.722Z,48.69
2022-10-18T12:11:14.377Z,48.47
2022-10-18T12:13:44.230Z,48.29
2022-10-18T12:16:12.204Z,48.03
2022-10-18T12:21:25.930Z,46.01
2022-10-18T12:24:05.936Z,45.49
2022-10-18T12:26:34.987Z,46.96
2022-10-18T12:29:39.918Z,45.78
2022-10-18T12:32:13.013Z,45.19
2022-10-18T12:35:03.229Z,45.73
2022-10-18T12:37:51.223Z,45.15
2022-10-18T12:40:23.324Z,44.58
2022-10-18T12:42:52.020Z,42.34
2022-10-18T12:45:46.239Z,43.06
2022-10-18T12:48:35.230Z,42.32
2022-10-18T12:51:18.559Z,42.80
2022-10-18T12:53:47.598Z,44.05
2022-10-18T12:56:29.131Z,43.52
2022-10-18T12:59:18.612Z,43.55
2022-10-18T13:01:51.324Z,44.50
2022-10-18T13:04:32.358Z,43.60
2022-10-18T13:06:59.653Z,43.73
2022-10-18T13:09:48.185Z,42.96
2022-10-18T13:12:14.451Z,43.84
2022-10-18T13:15:27.695Z,44.82
2022-10-18T13:18:26.753Z,44.18
2022-10-18T13:21:09.680Z,44.07
2022-10-18T13:23:38.059Z,42.42
2022-10-18T13:26:32.160Z,43.69
2022-10-18T13:29:27.926Z,44.10
2022-10-18T13:34:46.707Z,44.06
2022-10-18T13:37:13.887Z,45.03
2022-10-18T13:39:40.363Z,45.57
2022-10-18T13:42:12.664Z,46.39
2022-10-18T13:44:40.089Z,46.13
2022-10-18T13:47:06.901Z,47.55
2022-10-18T13:49:39.452Z,46.93
2022-10-18T13:52:25.804Z,45.46
2022-10-18T13:55:26.421Z,46.64
2022-10-18T13:57:55.534Z,46.72
2022-10-18T14:00:59.552Z,45.79
2022-10-18T14:03:57.002Z,44.27
2022-10-18T14:06:28.694Z,42.58
2022-10-18T14:09:09.513Z,43.09
2022-10-18T14:11:53.629Z,41.85
2022-10-18T14:14:34.289Z,40.80
2022-10-18T14:17:28.119Z,40.78
2022-10-18T14:20:01.439Z,41.12
2022-10-18T14:22:34.465Z,43.28
2022-10-18T14:25:01.123Z,45.55
2022-10-18T14:27:32.951Z,45.95
2022-10-18T14:30:20.164Z,47.34
2022-10-18T14:32:54.393Z,47.25
2022-10-18T14:35:38.908Z,48.04
2022-10-18T14:38:06.225Z,48.06
2022-10-18T14:40:40.061Z,47.94
2022-10-18T14:43:12.323Z,46.93
2022-10-18T14:45:39.417Z,46.66
2022-10-18T14:48:18.072Z,48.01
2022-10-18T14:50:47.121Z,48.52
2022-10-18T14:53:22.005Z,49.45
2022-10-18T14:55:57.797Z,49.56
2022-10-18T14:58:24.268Z,49.21
2022-10-18T15:00:50.749Z,49.62
2022-10-18T15:03:18.721Z,50.49
2022-10-18T15:05:59.400Z,51.21
2022-10-18T15:08:38.517Z,51.51
2022-10-18T15:11:10.477Z,51.27
2022-10-18T15:13:48.039Z,52.03
2022-10-18T15:16:18.362Z,52.25
2022-10-18T15:18:58.961Z,53.51
2022-10-18T15:21:25.468Z,53.55
2022-10-18T15:23:54.115Z,54.03
2022-10-18T15:26:29.901Z,54.11
2022-10-18T15:29:01.434Z,54.07
2022-10-18T15:31:35.965Z,54.26
2022-10-18T15:34:30.158Z,55.08
2022-10-18T15:36:57.087Z,55.53
2022-10-18T15:39:26.336Z,56.02
2022-10-18T15:41:59.184Z,56.50
2022-10-18T15:44:31.988Z,57.40
2022-10-18T15:47:13.634Z,58.24
2022-10-18T15:49:46.212Z,58.87
2022-10-18T15:52:21.828Z,59.34
2022-10-18T15:57:20.452Z,60.03
2022-10-18T16:00:00.482Z,60.68
2022-10-18T16:02:26.892Z,60.63
2022-10-18T16:04:53.596Z,61.10
2022-10-18T16:07:20.292Z,61.18
2022-10-18T16:09:46.679Z,61.28
2022-10-18T16:12:13.015Z,61.44
2022-10-18T16:14:39.479Z,61.97
2022-10-18T16:17:07.162Z,62.01
2022-10-18T16:19:33.919Z,62.04
2022-10-18T16:22:06.089Z,62.19
2022-10-18T16:24:33.180Z,62.55
2022-10-18T16:26:59.535Z,63.12
2022-10-18T16:29:28.441Z,63.22
2022-10-18T16:31:57.888Z,63.60
2022-10-18T16:34:26.880Z,64.04
2022-10-18T16:36:54.067Z,64.26
2022-10-18T16:39:21.721Z,64.94
2022-10-18T16:41:48.804Z,65.01
2022-10-18T16:44:16.398Z,65.35
2022-10-18T16:46:43.305Z,65.69
2022-10-18T16:51:46.847Z,65.88
2022-10-18T16:54:13.295Z,66.25
2022-10-18T16:56:40.157Z,66.56
2022-10-18T16:59:07.016Z,66.82
2022-10-18T17:01:33.438Z,67.06
2022-10-18T17:03:59.800Z,67.47
2022-10-18T17:06:29.365Z,67.83
2022-10-18T17:08:56.943Z,68.16
2022-10-18T17:11:25.297Z,68.57
2022-10-18T17:13:51.976Z,68.69
2022-10-18T17:16:33.104Z,68.69
2022-10-18T17:19:02.094Z,68.83
2022-10-18T17:21:29.214Z,69.10
2022-10-18T17:24:00.430Z,69.20
2022-10-18T17:26:29.356Z,69.65
2022-10-18T17:28:59.296Z,69.88
2022-10-18T17:31:25.718Z,70.16
2022-10-18T17:33:54.596Z,70.35
2022-10-18T17:36:21.777Z,70.83
2022-10-18T17:38:52.891Z,71.34
2022-10-18T17:41:19.386Z,71.08
2022-10-18T17:43:45.720Z,71.15
2022-10-18T17:46:12.969Z,71.30
2022-10-18T17:48:39.339Z,71.81
2022-10-18T17:51:10.688Z,71.88
2022-10-18T17:53:37.226Z,71.75
2022-10-18T17:56:04.664Z,71.94
2022-10-18T17:58:31.577Z,72.72
2022-10-18T18:01:07.541Z,73.04
2022-10-18T18:03:33.925Z,73.17
2022-10-18T18:06:00.300Z,73.37
2022-10-18T18:08:26.818Z,73.73
2022-10-18T18:10:55.889Z,73.93
2022-10-18T18:13:22.247Z,74.24
2022-10-18T18:15:48.568Z,74.30
2022-10-18T18:18:15.011Z,74.69
2022-10-18T18:20:41.387Z,74.91
2022-10-18T18:23:07.700Z,75.33
2022-10-18T18:25:34.058Z,75.48
2022-10-18T18:28:06.672Z,75.53
2022-10-18T18:30:33.870Z,75.41
2022-10-18T18:33:00.185Z,75.46
2022-10-18T18:35:26.528Z,75.29
2022-10-18T18:37:52.886Z,75.56
2022-10-18T18:40:19.289Z,76.00
2022-10-18T18:42:56.793Z,76.11
2022-10-18T18:45:31.948Z,76.18
2022-10-18T18:47:58.280Z,76.00
2022-10-18T18:50:24.584Z,76.25
2022-10-18T18:52:50.899Z,76.09
2022-10-18T18:55:17.378Z,76.38
2022-10-18T18:57:43.718Z,76.77
2022-10-18T19:00:12.539Z,77.03
2022-10-18T19:02:38.858Z,77.49
2022-10-18T19:05:05.494Z,77.67
2022-10-18T19:07:32.252Z,77.57
2022-10-18T19:09:58.854Z,77.49
2022-10-18T19:12:25.214Z,77.92
2022-10-18T19:14:51.537Z,77.93
2022-10-18T19:17:17.924Z,77.92
2022-10-18T19:19:44.301Z,78.48
2022-10-18T19:22:11.048Z,78.29
2022-10-18T19:24:37.478Z,78.88
2022-10-18T19:27:09.520Z,79.15
2022-10-18T19:29:37.949Z,78.86
2022-10-18T19:32:07.221Z,79.30
2022-10-18T19:34:34.564Z,79.59
2022-10-18T19:37:01.545Z,79.89
2022-10-18T19:39:33.550Z,79.87
2022-10-18T19:42:03.227Z,79.64
2022-10-18T19:44:31.721Z,79.86
2022-10-18T19:46:58.509Z,79.74
2022-10-18T19:49:25.504Z,79.69
2022-10-18T19:51:52.141Z,79.31
2022-10-18T19:54:18.614Z,79.49
2022-10-18T19:56:45.236Z,79.46
2022-10-18T19:59:13.171Z,79.20
2022-10-18T20:01:39.800Z,79.39
2022-10-18T20:04:08.264Z,80.05
2022-10-18T20:06:36.433Z,80.48
2022-10-18T20:09:03.363Z,80.61
2022-10-18T20:11:30.177Z,80.79
2022-10-18T20:13:57.087Z,80.87
2022-10-18T20:16:28.457Z,80.60
2022-10-18T20:19:07.266Z,80.48
2022-10-18T20:21:36.941Z,80.03
2022-10-18T20:24:04.659Z,80.48
2022-10-18T20:26:31.708Z,80.46
2022-10-18T20:28:59.622Z,80.56
2022-10-18T20:31:31.807Z,80.82
2022-10-18T20:34:00.390Z,80.93
2022-10-18T20:36:28.311Z,81.24
2022-10-18T20:38:55.075Z,81.05
2022-10-18T20:41:26.987Z,81.06
2022-10-18T20:43:58.907Z,80.92
2022-10-18T20:46:26.812Z,80.86
2022-10-18T20:48:53.888Z,80.64
2022-10-18T20:51:21.686Z,80.96
2022-10-18T20:53:48.660Z,81.03
2022-10-18T20:56:17.797Z,81.14
2022-10-18T20:58:44.877Z,80.85
2022-10-18T21:01:17.275Z,80.99
2022-10-18T21:03:45.732Z,81.10
2022-10-18T21:06:17.373Z,81.01
2022-10-18T21:08:44.100Z,81.07
2022-10-18T21:11:12.016Z,81.21
2022-10-18T21:13:38.532Z,81.27
2022-10-18T21:16:05.947Z,81.41
2022-10-18T21:18:34.260Z,81.50
2022-10-18T21:23:39.636Z,81.64
2022-10-18T21:26:06.709Z,81.76
2022-10-18T21:28:33.246Z,82.17
2022-10-18T21:31:12.517Z,82.10
2022-10-18T21:33:40.188Z,82.02
2022-10-18T21:36:06.728Z,81.94
2022-10-18T21:38:33.071Z,81.92
2022-10-18T21:40:59.668Z,81.91
2022-10-18T21:43:26.348Z,82.10
2022-10-18T21:46:01.916Z,82.19
2022-10-18T21:48:28.318Z,82.24
2022-10-18T21:50:54.847Z,82.20
2022-10-18T21:53:21.759Z,82.44
2022-10-18T21:55:48.299Z,82.32
2022-10-18T21:58:14.957Z,82.68
2022-10-18T22:00:41.336Z,82.89
2022-10-18T22:03:13.254Z,82.59
2022-10-18T22:05:39.915Z,82.68
2022-10-18T22:08:07.060Z,82.53
2022-10-18T22:10:33.628Z,82.61
2022-10-18T22:12:59.975Z,82.44
2022-10-18T22:15:26.318Z,82.36
2022-10-18T22:17:52.696Z,82.44
2022-10-18T22:20:19.071Z,82.56
2022-10-18T22:22:45.375Z,82.66
2022-10-18T22:25:11.687Z,82.81
2022-10-18T22:27:38.508Z,82.75
2022-10-18T22:30:05.439Z,83.15
2022-10-18T22:32:31.745Z,83.24
2022-10-18T22:34:58.069Z,83.11
2022-10-18T22:37:24.437Z,83.31
2022-10-18T22:39:50.753Z,83.17
2022-10-18T22:42:17.087Z,83.16
2022-10-18T22:44:43.407Z,83.61
2022-10-18T22:47:09.811Z,83.96
2022-10-18T22:49:36.115Z,84.02
2022-10-18T22:52:02.452Z,84.37
2022-10-18T22:54:28.808Z,84.64
2022-10-18T22:56:55.132Z,84.59
2022-10-18T22:59:21.439Z,84.54
2022-10-18T23:01:47.752Z,84.44
2022-10-18T23:04:14.109Z,84.80
2022-10-18T23:06:40.465Z,84.99
2022-10-18T23:09:10.075Z,85.17
2022-10-18T23:11:37.196Z,85.16
2022-10-18T23:14:05.423Z,85.08
2022-10-18T23:16:32.111Z,85.12
2022-10-18T23:18:59.130Z,85.11
2022-10-18T23:21:28.067Z,85.28
2022-10-18T23:23:55.443Z,85.13
2022-10-18T23:26:24.308Z,85.11
2022-10-18T23:28:52.337Z,85.28
2022-10-18T23:31:27.679Z,85.21
2022-10-18T23:33:56.441Z,85.24
2022-10-18T23:36:23.694Z,85.49
2022-10-18T23:38:50.454Z,85.59
2022-10-18T23:41:18.306Z,85.41
2022-10-18T23:43:45.087Z,85.34
2022-10-18T23:46:12.173Z,85.21
2022-10-18T23:48:38.772Z,85.10
2022-10-18T23:51:06.077Z,85.16
2022-10-18T23:53:32.661Z,85.04
2022-10-18T23:56:00.250Z,85.20
2022-10-18T23:58:27.519Z,84.92
